Portada
METAR-TAF:

METAR-TAF

Aeroports :

Bluefields, Nicaragua

latitud: 12-00N, longitud: 083-46W, altitud: 5 m

Observació

L'informe es va fer fa 56 minuts, a les 20:00 UTC
Vent 4 kt del Est
Temperatura 31°C
Humitat 75%
Pressió 1013 hPa
Visibilitat 10 km o més
Escasses núvols a una alçada de 2000 ft

METAR: MNBL 072000Z 10004KT 9999 FEW020 31/26 Q1013

Hora: 14:56 (20:56 UTC)

Pronòstic

L'informe es va fer fa 6 hores i 9 minuts, a les 14:47 UTC
Pronòstic vàlid del 07 a les 18 UTC al 08 a les 18 UTC
Vent 10 kt del Est/Nord-Est
Visibilitat: 8000 m
Cel ennuvolat a una alçada de 1700 ft
en les proximitats, pluja
Temporalment
l' 07 a les 20 UTC al 08 a les 02 UTC
Vent 8 kt del Est
Visibilitat 10 km o més
Núvols disperses a una alçada de 1800 ft

TAF: MNBL 071447Z 0718/0818 06010KT 8000 VCRA BKN017 TEMPO 0720/0802 08008KT 9999 SCT018

Observacions i pronòstics meteorològics de més de 4000 aeroports (METAR i TAF).

Les estacions disponibles són els punts grocs i vermells al mapa.

Posi el ratolí al punt desitjat per veure el nom de l'estació.

Feu clic per veure les observacions i els pronòstics meteorològics.

Per canviar el mapa: feu clic els botons verds amb una creu de color negre per apropar; al botó verd amb un guió per allunyar la imatge; o en les fletxes verdes per a mapes adjacents.


METAR-TAF: